Capitol Logistics 868


FACT
Cape Town International Airport
Cape Town, ZA
GOBD
Blaise Diagne International Airport
Dakar, SN

Activity Log

Date Flight Route Aircraft Duration
05/04/2020 CPX868 FACT/01 IMSO1A IMSOM Q34 UVIKU ABV DUGNU UL685 IBLOK DIMIX UDMON GAPEL EMTAL ARASO KIRVU ARLEM SOLDA ROB LGI GIA BJ BJ1D GOBD/I01-X B763 8h 28m
12/29/2019 CPX868 KODE1B KODES ABV VMO 0300W ROB B600 BJ BJ1D B763 8h 55m
12/19/2019 CPX868 Not Available B763 7h 12m
10/21/2019 CPX768 Not Available B763 8h 46m

Route Details

Aircraft Information
Primary: Boeing 767-300BDSF
Backup: Not Available
Route Data
Distance: 3553nm
Sched. Duration: 6h 59m
Avg. Duration: 8h 10m (+151m)
Times Flown: 4
Recm'd Route: Not Available
Planned Altitude: 34,000ft
Origin Wx: FACT 060700Z VRB03KT 9999 BKN032 14/13 Q1024 NOSIG
Dest. Wx: GOBD 060700Z 34011KT 8000 NSC 22/20 Q1012 NOSIG
Notes:

Financial History
Total Freight: 330,160lbs
Average Load: 82,540lbs/flt
Fuel Used: 362,062lbs
Avg. Fuel Used: 90,516lbs/flt
Fuel Expense: $322,235
Avg. Fuel Expense: $80,559
Avg. Fuel Cost: $0.89/lbs
Total Gross Income: $3,155,626
Pilot Pay: $976
Total Expenses: $341,016
Total Revenue: $2,483,600
Average Revenue: $788,906.45